createdAt,value
2023-02-12T00:00:59.971Z,24.97
2023-02-12T00:03:32.742Z,22.00
2023-02-12T00:06:06.807Z,22.20
2023-02-12T00:08:40.239Z,31.30
2023-02-12T00:11:24.946Z,31.33
2023-02-12T00:13:58.750Z,24.00
2023-02-12T00:16:31.634Z,25.83
2023-02-12T00:19:04.437Z,24.97
2023-02-12T00:21:37.320Z,26.03
2023-02-12T00:24:09.986Z,22.77
2023-02-12T00:26:42.768Z,39.00
2023-02-12T00:29:15.535Z,24.93
2023-02-12T00:31:48.419Z,25.10
2023-02-12T00:34:21.792Z,30.00
2023-02-12T00:36:54.537Z,25.37
2023-02-12T00:39:27.295Z,26.23
2023-02-12T00:42:00.033Z,25.93
2023-02-12T00:44:33.362Z,23.60
2023-02-12T00:47:08.201Z,22.40
2023-02-12T00:49:41.062Z,28.00
2023-02-12T00:52:13.725Z,26.80
2023-02-12T00:54:46.483Z,19.47
2023-02-12T00:57:20.146Z,21.37
2023-02-12T00:59:52.811Z,25.97
2023-02-12T01:02:25.638Z,25.90
2023-02-12T01:04:58.642Z,20.40
2023-02-12T01:07:31.425Z,25.50
2023-02-12T01:10:06.131Z,22.40
2023-02-12T01:12:38.789Z,25.97
2023-02-12T01:15:11.619Z,26.07
2023-02-12T01:17:44.828Z,26.57
2023-02-12T01:20:19.732Z,25.13
2023-02-12T01:22:52.696Z,30.27
2023-02-12T01:25:25.513Z,28.47
2023-02-12T01:27:58.224Z,25.77
2023-02-12T01:30:31.023Z,26.90
2023-02-12T01:33:03.844Z,23.93
2023-02-12T01:35:38.430Z,31.73
2023-02-12T01:38:11.909Z,29.40
2023-02-12T01:40:44.712Z,27.60
2023-02-12T01:43:17.402Z,27.33
2023-02-12T01:45:53.909Z,25.87
2023-02-12T01:48:29.418Z,23.93
2023-02-12T01:51:03.934Z,22.33
2023-02-12T01:53:41.456Z,26.93
2023-02-12T01:56:14.997Z,27.43
2023-02-12T01:58:50.671Z,24.70
2023-02-12T02:01:28.392Z,26.23
2023-02-12T02:04:13.297Z,24.43
2023-02-12T02:06:56.206Z,28.43
2023-02-12T02:09:30.495Z,27.70
2023-02-12T02:12:22.679Z,27.07
2023-02-12T02:14:57.982Z,25.93
2023-02-12T02:18:02.848Z,28.47
2023-02-12T02:20:57.290Z,35.07
2023-02-12T02:24:07.460Z,25.07
2023-02-12T02:26:43.000Z,28.40
2023-02-12T02:29:18.780Z,28.87
2023-02-12T02:32:04.796Z,30.30
2023-02-12T02:34:50.748Z,27.80
2023-02-12T02:37:31.353Z,28.07
2023-02-12T02:40:17.776Z,23.90
2023-02-12T02:43:04.652Z,21.50
2023-02-12T02:45:46.183Z,24.83
2023-02-12T02:48:26.093Z,22.97
2023-02-12T02:51:10.373Z,28.07
2023-02-12T02:53:48.792Z,25.27
2023-02-12T02:56:24.156Z,26.67
2023-02-12T02:59:03.334Z,26.90
2023-02-12T03:02:06.654Z,24.07
2023-02-12T03:04:44.513Z,24.60
2023-02-12T03:07:52.666Z,27.03
2023-02-12T03:10:33.645Z,20.47
2023-02-12T03:13:27.877Z,26.80
2023-02-12T03:16:05.782Z,20.80
2023-02-12T03:19:04.872Z,20.53
2023-02-12T03:21:45.160Z,20.17
2023-02-12T03:24:40.232Z,22.13
2023-02-12T03:27:30.998Z,20.77
2023-02-12T03:30:06.089Z,28.77
2023-02-12T03:33:10.676Z,28.63
2023-02-12T03:35:56.694Z,26.97
2023-02-12T03:38:41.529Z,23.73
2023-02-12T03:41:21.604Z,22.30
2023-02-12T03:44:05.189Z,28.83
2023-02-12T03:46:47.082Z,28.77
2023-02-12T03:49:38.411Z,21.67
2023-02-12T03:52:11.143Z,19.47
2023-02-12T03:54:43.904Z,21.43
2023-02-12T03:57:22.311Z,21.83
2023-02-12T03:59:55.196Z,20.33
2023-02-12T04:02:28.283Z,23.17
2023-02-12T04:05:09.071Z,25.13
2023-02-12T04:07:41.840Z,20.07
2023-02-12T04:10:15.476Z,25.37
2023-02-12T04:13:00.328Z,26.20
2023-02-12T04:15:58.840Z,21.10
2023-02-12T04:18:43.673Z,27.80
2023-02-12T04:21:34.535Z,21.40
2023-02-12T04:24:32.435Z,21.13
2023-02-12T04:27:28.099Z,20.03
2023-02-12T04:30:26.470Z,26.67
2023-02-12T04:33:09.429Z,33.08
2023-02-12T04:36:16.437Z,25.20
2023-02-12T04:39:04.685Z,26.60
2023-02-12T04:41:39.493Z,23.57
2023-02-12T04:44:23.376Z,29.33
2023-02-12T04:46:56.203Z,22.23
2023-02-12T04:49:28.943Z,26.07
2023-02-12T04:52:01.720Z,31.50
2023-02-12T04:54:34.856Z,24.47
2023-02-12T04:57:08.538Z,28.07
2023-02-12T04:59:41.272Z,27.50
2023-02-12T05:02:13.991Z,26.70
2023-02-12T05:04:48.502Z,24.93
2023-02-12T05:07:21.209Z,28.63
2023-02-12T05:09:54.897Z,27.60
2023-02-12T05:12:27.608Z,27.43
2023-02-12T05:15:00.380Z,25.17
2023-02-12T05:17:33.222Z,28.10
2023-02-12T05:20:06.462Z,27.93
2023-02-12T05:22:39.209Z,25.53
2023-02-12T05:25:11.915Z,23.83
2023-02-12T05:27:44.595Z,26.30
2023-02-12T05:30:17.528Z,27.33
2023-02-12T05:32:50.181Z,29.10
2023-02-12T05:35:22.870Z,25.30
2023-02-12T05:37:55.630Z,25.03
2023-02-12T05:40:28.353Z,27.77
2023-02-12T05:43:01.228Z,25.03
2023-02-12T05:45:33.929Z,26.50
2023-02-12T05:48:07.014Z,26.40
2023-02-12T05:50:39.735Z,26.83
2023-02-12T05:53:13.906Z,24.83
2023-02-12T05:55:46.718Z,24.33
2023-02-12T05:58:19.407Z,26.77
2023-02-12T06:00:52.102Z,23.67
2023-02-12T06:03:24.858Z,22.77
2023-02-12T06:05:57.887Z,26.93
2023-02-12T06:08:30.921Z,24.87
2023-02-12T06:11:07.281Z,24.47
2023-02-12T06:13:40.119Z,26.23
2023-02-12T06:16:24.656Z,27.30
2023-02-12T06:18:57.536Z,24.87
2023-02-12T06:21:31.076Z,20.93
2023-02-12T06:24:04.640Z,23.97
2023-02-12T06:26:37.362Z,23.33
2023-02-12T06:29:10.264Z,26.20
2023-02-12T06:31:43.244Z,27.83
2023-02-12T06:34:18.020Z,24.07
2023-02-12T06:36:50.758Z,22.53
2023-02-12T06:39:23.715Z,26.77
2023-02-12T06:41:56.528Z,26.03
2023-02-12T06:44:29.222Z,25.98
2023-02-12T06:47:01.886Z,23.27
2023-02-12T06:49:34.641Z,30.10
2023-02-12T06:52:07.353Z,24.17
2023-02-12T06:54:40.188Z,23.83
2023-02-12T06:57:12.836Z,22.07
2023-02-12T06:59:45.506Z,22.37
2023-02-12T07:02:18.266Z,24.03
2023-02-12T07:04:51.081Z,27.25
2023-02-12T07:07:23.801Z,21.83
2023-02-12T07:09:56.601Z,23.00
2023-02-12T07:12:29.422Z,25.83
2023-02-12T07:15:02.150Z,20.33
2023-02-12T07:17:34.815Z,22.10
2023-02-12T07:20:08.113Z,20.87
2023-02-12T07:22:40.782Z,21.63
2023-02-12T07:25:13.430Z,23.33
2023-02-12T07:27:46.121Z,22.97
2023-02-12T07:30:19.655Z,20.93
2023-02-12T07:32:52.344Z,19.13
2023-02-12T07:35:25.054Z,25.00
2023-02-12T07:37:58.452Z,25.90
2023-02-12T07:40:31.131Z,18.87
2023-02-12T07:43:04.403Z,18.80
2023-02-12T07:45:41.648Z,18.63
2023-02-12T07:48:14.345Z,20.47
2023-02-12T07:50:47.083Z,21.43
2023-02-12T07:53:19.722Z,20.80
2023-02-12T07:55:52.419Z,17.90
2023-02-12T07:58:25.119Z,21.37
2023-02-12T08:00:57.812Z,23.57
2023-02-12T08:03:30.575Z,20.87
2023-02-12T08:06:08.447Z,20.30
2023-02-12T08:08:41.246Z,19.67
2023-02-12T08:11:15.580Z,19.53
2023-02-12T08:13:48.319Z,15.70
2023-02-12T08:16:23.779Z,19.47
2023-02-12T08:19:07.229Z,21.17
2023-02-12T08:21:53.519Z,18.60
2023-02-12T08:24:26.302Z,17.43
2023-02-12T08:26:59.088Z,20.03
2023-02-12T08:29:31.903Z,21.50
2023-02-12T08:32:06.342Z,22.50
2023-02-12T08:34:39.300Z,20.97
2023-02-12T08:37:12.075Z,18.30
2023-02-12T08:39:44.769Z,20.47
2023-02-12T08:42:17.433Z,18.43
2023-02-12T08:44:50.120Z,21.07
2023-02-12T08:47:22.908Z,22.37
2023-02-12T08:49:55.613Z,24.40
2023-02-12T08:52:28.356Z,19.67
2023-02-12T08:55:01.339Z,20.57
2023-02-12T08:57:35.265Z,26.42
2023-02-12T09:00:10.602Z,23.10
2023-02-12T09:02:43.380Z,28.50
2023-02-12T09:05:16.210Z,21.30
2023-02-12T09:07:49.086Z,26.77
2023-02-12T09:10:21.944Z,23.67
2023-02-12T09:12:54.657Z,20.97
2023-02-12T09:15:27.414Z,20.57
2023-02-12T09:18:03.893Z,27.03
2023-02-12T09:20:42.670Z,20.33
2023-02-12T09:23:15.736Z,20.10
2023-02-12T09:25:48.488Z,21.07
2023-02-12T09:28:21.192Z,25.47
2023-02-12T09:30:53.996Z,17.30
2023-02-12T09:33:26.790Z,18.20
2023-02-12T09:36:09.557Z,21.03
2023-02-12T09:38:43.971Z,23.17
2023-02-12T09:41:28.919Z,19.87
2023-02-12T09:44:10.045Z,18.63
2023-02-12T09:46:59.911Z,26.57
2023-02-12T09:49:49.346Z,31.77
2023-02-12T09:52:27.152Z,18.60
2023-02-12T09:55:00.338Z,14.87
2023-02-12T09:57:36.164Z,15.77
2023-02-12T10:00:17.230Z,15.53
2023-02-12T10:02:52.715Z,15.63
2023-02-12T10:05:36.999Z,19.83
2023-02-12T10:08:28.086Z,15.77
2023-02-12T10:11:15.550Z,17.43
2023-02-12T10:13:52.350Z,17.83
2023-02-12T10:16:51.747Z,19.77
2023-02-12T10:19:50.306Z,18.80
2023-02-12T10:23:04.260Z,16.53
2023-02-12T10:25:52.245Z,16.80
2023-02-12T10:28:35.568Z,16.17
2023-02-12T10:31:17.627Z,14.63
2023-02-12T10:33:51.431Z,16.87
2023-02-12T10:36:31.035Z,14.80
2023-02-12T10:39:22.044Z,14.63
2023-02-12T10:42:14.066Z,14.87
2023-02-12T10:44:46.771Z,15.37
2023-02-12T10:47:22.437Z,17.83
2023-02-12T10:50:04.726Z,18.37
2023-02-12T10:52:58.170Z,14.03
2023-02-12T10:55:36.698Z,14.63
2023-02-12T10:58:24.206Z,13.33
2023-02-12T11:00:59.788Z,15.43
2023-02-12T11:03:39.704Z,16.63
2023-02-12T11:06:15.417Z,12.70
2023-02-12T11:08:48.446Z,15.67
2023-02-12T11:11:23.101Z,14.83
2023-02-12T11:14:06.581Z,16.13
2023-02-12T11:16:46.509Z,19.67
2023-02-12T11:19:25.610Z,16.37
2023-02-12T11:22:11.203Z,20.87
2023-02-12T11:24:44.562Z,23.70
2023-02-12T11:27:20.098Z,32.07
2023-02-12T11:30:09.665Z,38.47
2023-02-12T11:32:43.008Z,15.83
2023-02-12T11:35:24.982Z,16.00
2023-02-12T11:37:59.654Z,12.17
2023-02-12T11:40:34.012Z,13.97
2023-02-12T11:43:09.165Z,17.30
2023-02-12T11:45:52.517Z,15.90
2023-02-12T11:48:33.837Z,16.00
2023-02-12T11:51:09.407Z,18.70
2023-02-12T11:53:47.136Z,15.33
2023-02-12T11:56:21.008Z,19.67
2023-02-12T11:58:55.483Z,12.97
2023-02-12T12:01:33.961Z,16.73
2023-02-12T12:04:11.061Z,17.43
2023-02-12T12:06:52.418Z,15.40
2023-02-12T12:09:34.751Z,17.67
2023-02-12T12:12:13.577Z,18.77
2023-02-12T12:15:21.794Z,17.70
2023-02-12T12:18:24.213Z,20.17
2023-02-12T12:21:07.992Z,22.53
2023-02-12T12:23:56.938Z,18.90
2023-02-12T12:26:34.344Z,15.90
2023-02-12T12:29:41.507Z,13.33
2023-02-12T12:32:18.050Z,19.90
2023-02-12T12:34:50.782Z,17.20
2023-02-12T12:37:43.828Z,19.13
2023-02-12T12:40:42.944Z,21.50
2023-02-12T12:43:45.432Z,16.80
2023-02-12T12:46:43.262Z,19.43
2023-02-12T12:49:30.515Z,17.60
2023-02-12T12:52:22.527Z,16.70
2023-02-12T12:55:17.274Z,15.50
2023-02-12T12:57:56.207Z,19.67
2023-02-12T13:00:43.409Z,18.97
2023-02-12T13:03:28.591Z,18.10
2023-02-12T13:06:30.463Z,16.30
2023-02-12T13:09:30.070Z,15.30
2023-02-12T13:12:35.821Z,18.53
2023-02-12T13:15:51.345Z,17.37
2023-02-12T13:18:42.483Z,17.57
2023-02-12T13:21:42.441Z,18.70
2023-02-12T13:24:27.801Z,13.23
2023-02-12T13:27:24.185Z,22.60
2023-02-12T13:30:19.183Z,22.75
2023-02-12T13:33:16.736Z,21.00
2023-02-12T13:35:54.919Z,20.70
2023-02-12T13:38:46.867Z,19.50
2023-02-12T13:41:21.541Z,20.83
2023-02-12T13:44:13.630Z,15.80
2023-02-12T13:46:52.253Z,19.40
2023-02-12T13:49:53.502Z,15.73
2023-02-12T13:52:43.586Z,19.97
2023-02-12T13:55:45.949Z,18.13
2023-02-12T13:58:40.017Z,20.10
2023-02-12T14:01:31.767Z,17.83
2023-02-12T14:04:33.610Z,19.23
2023-02-12T14:07:08.369Z,13.23
2023-02-12T14:09:50.277Z,19.03
2023-02-12T14:12:26.060Z,18.23
2023-02-12T14:15:31.014Z,17.37
2023-02-12T14:18:22.298Z,17.27
2023-02-12T14:21:13.589Z,20.80
2023-02-12T14:23:47.124Z,17.43
2023-02-12T14:26:23.280Z,18.50
2023-02-12T14:29:18.470Z,17.00
2023-02-12T14:31:51.301Z,22.40
2023-02-12T14:34:24.080Z,18.90
2023-02-12T14:37:18.108Z,22.03
2023-02-12T14:40:29.386Z,24.37
2023-02-12T14:43:54.689Z,14.13
2023-02-12T14:46:27.744Z,22.47
2023-02-12T14:49:06.009Z,21.50
2023-02-12T14:51:50.940Z,10.53
2023-02-12T14:54:34.594Z,9.20
2023-02-12T14:57:19.903Z,10.13
2023-02-12T14:59:57.745Z,11.43
2023-02-12T15:02:35.019Z,10.57
2023-02-12T15:05:23.448Z,10.40
2023-02-12T15:08:00.353Z,8.47
2023-02-12T15:10:39.628Z,10.93
2023-02-12T15:13:24.676Z,14.20
2023-02-12T15:16:06.475Z,11.83
2023-02-12T15:19:11.350Z,9.70
2023-02-12T15:21:46.088Z,9.60
2023-02-12T15:24:24.983Z,9.23
2023-02-12T15:27:00.973Z,10.03
2023-02-12T15:29:41.727Z,11.10
2023-02-12T15:32:27.343Z,12.40
2023-02-12T15:35:00.031Z,9.00
2023-02-12T15:37:33.478Z,9.27
2023-02-12T15:40:09.706Z,10.10
2023-02-12T15:42:52.417Z,11.40
2023-02-12T15:45:27.783Z,9.63
2023-02-12T15:48:06.508Z,13.43
2023-02-12T15:51:09.012Z,9.80
2023-02-12T15:53:42.849Z,11.47
2023-02-12T15:56:19.377Z,9.63
2023-02-12T15:58:57.454Z,12.63
2023-02-12T16:01:33.491Z,11.40
2023-02-12T16:04:08.067Z,12.50
2023-02-12T16:06:41.651Z,14.07
2023-02-12T16:09:30.103Z,100.80
2023-02-12T16:12:05.444Z,212.97
2023-02-12T16:14:50.721Z,650.63
2023-02-12T16:17:27.508Z,173.23
2023-02-12T16:20:01.848Z,73.37
2023-02-12T16:22:39.140Z,203.87
2023-02-12T16:25:18.912Z,222.13
2023-02-12T16:27:51.528Z,155.20
2023-02-12T16:30:42.601Z,137.07
2023-02-12T16:33:35.679Z,136.27
2023-02-12T16:36:26.329Z,197.47
2023-02-12T16:39:08.413Z,47.17
2023-02-12T16:41:55.436Z,149.23
2023-02-12T16:44:31.367Z,33.20
2023-02-12T16:47:04.206Z,656.80
2023-02-12T16:49:36.925Z,834.20
2023-02-12T16:52:34.681Z,1638.23
2023-02-12T16:55:18.105Z,1215.80
2023-02-12T16:57:50.806Z,247.83
2023-02-12T17:00:23.946Z,342.87
2023-02-12T17:02:57.287Z,1473.33
2023-02-12T17:05:30.135Z,1436.87
2023-02-12T17:08:02.937Z,1999.90
2023-02-12T17:10:35.708Z,1999.90
2023-02-12T17:13:09.552Z,1214.00
2023-02-12T17:16:03.424Z,1999.90
2023-02-12T17:18:36.399Z,446.80
2023-02-12T17:21:21.240Z,371.97
2023-02-12T17:23:54.365Z,845.00
2023-02-12T17:26:27.156Z,438.30
2023-02-12T17:29:05.524Z,298.65
2023-02-12T17:31:38.576Z,27.67
2023-02-12T17:34:31.930Z,16.60
2023-02-12T17:37:11.442Z,9.03
2023-02-12T17:39:44.098Z,16.10
2023-02-12T17:42:17.206Z,15.53
2023-02-12T17:44:49.935Z,11.33
2023-02-12T17:47:22.650Z,13.83
2023-02-12T17:49:55.959Z,11.47
2023-02-12T17:52:28.794Z,12.13
2023-02-12T17:55:01.455Z,12.03
2023-02-12T17:57:34.541Z,10.53
2023-02-12T18:00:14.306Z,11.37
2023-02-12T18:02:47.421Z,13.23
2023-02-12T18:05:20.199Z,8.40
2023-02-12T18:07:52.956Z,11.43
2023-02-12T18:10:25.695Z,10.17
2023-02-12T18:12:58.654Z,12.13
2023-02-12T18:15:32.028Z,11.80
2023-02-12T18:18:04.865Z,13.27
2023-02-12T18:20:40.722Z,9.13
2023-02-12T18:23:13.488Z,10.33
2023-02-12T18:25:46.157Z,10.37
2023-02-12T18:28:18.910Z,9.47
2023-02-12T18:30:58.718Z,11.17
2023-02-12T18:33:32.783Z,13.47
2023-02-12T18:36:10.954Z,10.57
2023-02-12T18:38:45.601Z,12.43
2023-02-12T18:41:26.457Z,11.47
2023-02-12T18:43:59.817Z,8.57
2023-02-12T18:46:32.599Z,10.17
2023-02-12T18:49:05.978Z,9.07
2023-02-12T18:51:40.894Z,14.03
2023-02-12T18:54:14.401Z,19.90
2023-02-12T18:56:51.056Z,65.53
2023-02-12T18:59:26.923Z,12.67
2023-02-12T19:02:02.407Z,13.43
2023-02-12T19:04:35.257Z,21.43
2023-02-12T19:07:07.999Z,13.67
2023-02-12T19:09:40.792Z,24.30
2023-02-12T19:12:13.445Z,19.03
2023-02-12T19:14:46.280Z,11.47
2023-02-12T19:17:18.983Z,11.57
2023-02-12T19:19:52.064Z,10.67
2023-02-12T19:22:24.745Z,8.60
2023-02-12T19:24:57.495Z,10.90
2023-02-12T19:27:31.424Z,10.33
2023-02-12T19:30:05.981Z,7.00
2023-02-12T19:32:38.713Z,22.63
2023-02-12T19:35:11.588Z,11.00
2023-02-12T19:37:44.648Z,10.40
2023-02-12T19:40:17.483Z,9.10
2023-02-12T19:42:50.143Z,7.70
2023-02-12T19:45:22.854Z,8.40
2023-02-12T19:47:57.589Z,10.83
2023-02-12T19:50:30.507Z,8.83
2023-02-12T19:53:03.654Z,8.20
2023-02-12T19:55:36.146Z,12.50
2023-02-12T19:58:09.366Z,9.50
2023-02-12T20:00:42.504Z,11.30
2023-02-12T20:03:15.160Z,7.53
2023-02-12T20:05:52.063Z,9.13
2023-02-12T20:08:24.704Z,8.37
2023-02-12T20:10:57.719Z,9.77
2023-02-12T20:13:30.574Z,7.40
2023-02-12T20:16:04.772Z,7.13
2023-02-12T20:18:38.360Z,9.13
2023-02-12T20:21:14.112Z,7.20
2023-02-12T20:23:47.214Z,7.53
2023-02-12T20:26:20.421Z,8.90
2023-02-12T20:28:53.029Z,6.40
2023-02-12T20:31:28.835Z,13.23
2023-02-12T20:34:06.158Z,9.77
2023-02-12T20:36:40.812Z,5.80
2023-02-12T20:39:16.708Z,5.87
2023-02-12T20:41:50.117Z,6.70
2023-02-12T20:44:23.465Z,7.07
2023-02-12T20:46:57.334Z,9.30
2023-02-12T20:49:30.049Z,8.47
2023-02-12T20:52:02.780Z,9.80
2023-02-12T20:54:38.009Z,8.03
2023-02-12T20:57:10.670Z,10.47
2023-02-12T20:59:43.515Z,9.50
2023-02-12T21:02:16.718Z,9.03
2023-02-12T21:04:51.260Z,11.10
2023-02-12T21:07:23.966Z,8.03
2023-02-12T21:09:56.783Z,8.47
2023-02-12T21:12:29.508Z,5.57
2023-02-12T21:15:02.224Z,5.73
2023-02-12T21:17:34.949Z,5.90
2023-02-12T21:20:08.148Z,4.07
2023-02-12T21:22:40.807Z,4.60
2023-02-12T21:25:14.025Z,4.17
2023-02-12T21:27:46.867Z,6.30
2023-02-12T21:30:19.947Z,5.60
2023-02-12T21:32:53.548Z,7.60
2023-02-12T21:35:26.507Z,6.30
2023-02-12T21:37:59.201Z,8.83
2023-02-12T21:40:31.973Z,8.40
2023-02-12T21:43:04.630Z,7.67
2023-02-12T21:45:37.500Z,7.83
2023-02-12T21:48:10.139Z,8.80
2023-02-12T21:50:42.889Z,7.97
2023-02-12T21:53:15.603Z,6.77
2023-02-12T21:55:49.087Z,7.20
2023-02-12T21:58:22.742Z,5.33
2023-02-12T22:00:55.786Z,8.27
2023-02-12T22:03:29.011Z,7.63
2023-02-12T22:06:03.142Z,7.60
2023-02-12T22:08:36.790Z,8.13
2023-02-12T22:11:11.587Z,5.17
2023-02-12T22:13:44.377Z,5.40
2023-02-12T22:16:25.629Z,6.03
2023-02-12T22:19:00.399Z,6.73
2023-02-12T22:21:36.050Z,7.40
2023-02-12T22:24:12.830Z,9.60
2023-02-12T22:26:45.625Z,6.90
2023-02-12T22:29:18.591Z,7.57
2023-02-12T22:31:51.372Z,8.63
2023-02-12T22:34:24.113Z,5.63
2023-02-12T22:36:56.802Z,4.03
2023-02-12T22:39:29.767Z,4.77
2023-02-12T22:42:02.592Z,5.07
2023-02-12T22:44:35.915Z,4.63
2023-02-12T22:47:08.605Z,6.00
2023-02-12T22:49:41.282Z,7.17
2023-02-12T22:52:13.936Z,8.40
2023-02-12T22:54:46.640Z,8.37
2023-02-12T22:57:19.507Z,7.07
2023-02-12T22:59:52.292Z,9.20
2023-02-12T23:02:25.103Z,5.47
2023-02-12T23:04:57.911Z,8.53
2023-02-12T23:07:30.546Z,10.83
2023-02-12T23:10:04.053Z,5.20
2023-02-12T23:12:36.687Z,3.03
2023-02-12T23:15:10.036Z,2.30
2023-02-12T23:17:42.692Z,2.50
2023-02-12T23:20:15.787Z,2.97
2023-02-12T23:22:48.460Z,3.67
2023-02-12T23:25:21.115Z,4.47
2023-02-12T23:27:53.898Z,5.80
2023-02-12T23:30:26.820Z,5.57
2023-02-12T23:32:59.817Z,5.70
2023-02-12T23:35:32.728Z,5.33
2023-02-12T23:38:05.475Z,7.17
2023-02-12T23:40:38.909Z,7.63
2023-02-12T23:43:11.613Z,7.07
2023-02-12T23:45:45.077Z,7.88
2023-02-12T23:48:17.850Z,6.43
2023-02-12T23:50:50.554Z,4.77
2023-02-12T23:53:23.216Z,7.97
2023-02-12T23:55:55.930Z,5.43
2023-02-12T23:58:28.649Z,10.80
